Time;durP1;ratioP1;P1;durP2;ratioP2;P2;SDS_P1;SDS_P2;PMS_P1;PMS_P2;Temp;Humidity;BMP_temperature;BMP_pressure;BME280_temperature;BME280_humidity;BME280_pressure;Samples;Min_cycle;Max_cycle;Signal;HPM_P1;HPM_P2
2021/11/08 00:01:19;;;;;;;2.58;0.63;;;21.20;52.70;;;;;;6252027;28;20156;-69
2021/11/08 00:04:19;;;;;;;1.13;0.60;;;21.20;52.70;;;;;;6269518;28;20064;-68
2021/11/08 00:07:20;;;;;;;1.38;0.50;;;21.20;52.70;;;;;;6269205;28;20051;-69
2021/11/08 00:10:28;;;;;;;1.65;0.68;;;21.10;52.60;;;;;;6268739;28;20021;-69
2021/11/08 00:13:29;;;;;;;2.22;0.68;;;21.10;52.50;;;;;;6268675;28;20475;-68
2021/11/08 00:22:36;;;;;;;0.82;0.60;;;21.20;52.70;;;;;;6249579;28;20032;-68
2021/11/08 00:25:41;;;;;;;1.65;0.70;;;21.10;52.70;;;;;;6268409;28;20052;-68
2021/11/08 00:28:42;;;;;;;;;;;21.10;52.60;;;;;;6269115;28;20025;-68
2021/11/08 00:31:43;;;;;;;0.63;0.40;;;21.20;52.70;;;;;;6253067;28;20352;-68
2021/11/08 00:34:44;;;;;;;1.13;0.43;;;21.10;52.60;;;;;;6244268;28;20022;-68
2021/11/08 00:37:46;;;;;;;2.45;0.90;;;21.10;52.70;;;;;;6262111;28;20021;-68
2021/11/08 00:40:47;;;;;;;1.45;0.40;;;21.10;52.60;;;;;;6265822;28;20025;-68
2021/11/08 00:43:47;;;;;;;1.20;0.50;;;21.10;52.70;;;;;;6266699;28;20021;-68
2021/11/08 00:46:50;;;;;;;1.05;0.43;;;21.10;52.70;;;;;;6268071;28;20471;-68
2021/11/08 00:49:53;;;;;;;1.92;0.50;;;21.10;52.60;;;;;;6268127;28;20024;-67
2021/11/08 00:52:54;;;;;;;1.48;0.60;;;21.10;52.70;;;;;;6249643;28;20446;-66
2021/11/08 00:55:56;;;;;;;2.85;0.63;;;21.10;52.70;;;;;;6241988;28;20026;-66
2021/11/08 00:58:57;;;;;;;1.20;0.60;;;21.10;52.70;;;;;;6268079;28;20017;-66
2021/11/08 01:01:58;;;;;;;1.40;0.63;;;21.10;52.60;;;;;;6267555;28;20063;-66
2021/11/08 01:05:01;;;;;;;2.70;0.60;;;21.10;52.70;;;;;;6267975;28;20380;-66
2021/11/08 01:08:02;;;;;;;1.60;0.68;;;21.10;52.60;;;;;;6267648;28;20505;-67
2021/11/08 01:11:03;;;;;;;1.50;0.50;;;21.10;52.70;;;;;;6268299;28;20032;-66
2021/11/08 01:14:04;;;;;;;0.85;0.40;;;21.10;52.70;;;;;;6246545;28;20050;-66
2021/11/08 01:17:06;;;;;;;1.63;0.70;;;21.10;52.70;;;;;;6243133;28;20104;-67
2021/11/08 01:20:09;;;;;;;1.00;0.38;;;21.10;52.70;;;;;;6243496;28;20083;-66
2021/11/08 01:23:12;;;;;;;0.82;0.60;;;21.10;52.70;;;;;;6254917;28;20029;-66
2021/11/08 01:26:14;;;;;;;1.45;0.60;;;21.10;52.80;;;;;;6261248;28;20075;-67
2021/11/08 01:29:15;;;;;;;2.72;0.70;;;21.20;52.80;;;;;;6263668;28;20032;-66
2021/11/08 01:32:16;;;;;;;1.15;0.55;;;21.10;52.70;;;;;;6239209;28;20030;-66
2021/11/08 01:35:16;;;;;;;0.93;0.50;;;21.10;52.70;;;;;;6242718;28;20022;-66
2021/11/08 01:41:21;;;;;;;0.82;0.40;;;21.10;52.70;;;;;;6272074;28;20021;-66
2021/11/08 01:44:22;;;;;;;1.50;0.60;;;21.10;52.80;;;;;;6275978;28;20391;-65
2021/11/08 01:47:22;;;;;;;1.20;0.50;;;21.10;52.80;;;;;;6275993;28;20029;-66
2021/11/08 01:50:24;;;;;;;1.00;0.57;;;21.10;52.80;;;;;;6275575;28;20029;-66
2021/11/08 01:53:25;;;;;;;2.45;0.70;;;21.10;52.80;;;;;;6264223;28;20025;-66
2021/11/08 01:56:25;;;;;;;2.67;0.60;;;21.10;52.80;;;;;;6275062;28;20028;-66
2021/11/08 01:59:27;;;;;;;1.55;0.70;;;21.10;52.80;;;;;;6274433;28;20031;-66
2021/11/08 02:02:27;;;;;;;1.25;0.40;;;21.10;52.80;;;;;;6274077;28;20017;-67
2021/11/08 02:05:28;;;;;;;1.88;0.57;;;21.10;52.80;;;;;;6274234;28;20032;-67
2021/11/08 02:08:29;;;;;;;1.10;0.60;;;21.10;52.80;;;;;;6244944;28;20034;-66
2021/11/08 02:11:35;;;;;;;1.58;0.52;;;21.10;52.70;;;;;;6227277;28;20057;-66
2021/11/08 02:14:39;;;;;;;1.10;0.43;;;21.10;53.40;;;;;;6275230;28;20241;-68
2021/11/08 02:17:43;;;;;;;1.38;0.50;;;21.10;52.80;;;;;;6270081;28;20383;-68
2021/11/08 02:20:47;;;;;;;1.08;0.50;;;21.10;52.80;;;;;;6249556;28;20454;-67
2021/11/08 02:23:48;;;;;;;0.65;0.47;;;21.10;52.80;;;;;;6267903;28;20429;-66
2021/11/08 02:26:49;;;;;;;1.00;0.50;;;21.10;52.80;;;;;;6274929;28;20499;-68
2021/11/08 02:29:52;;;;;;;2.55;0.60;;;21.10;52.80;;;;;;6261060;28;20033;-68
2021/11/08 02:32:53;;;;;;;1.95;0.70;;;21.10;52.80;;;;;;6252996;28;20032;-68
2021/11/08 02:35:55;;;;;;;1.55;0.60;;;21.10;52.80;;;;;;6253180;28;20024;-68
2021/11/08 02:38:58;;;;;;;1.27;0.50;;;21.10;52.80;;;;;;6274621;28;20025;-68
2021/11/08 02:41:59;;;;;;;1.13;0.50;;;21.10;52.80;;;;;;6274768;28;20472;-68
2021/11/08 02:45:03;;;;;;;1.58;0.60;;;21.10;52.80;;;;;;6275070;28;20021;-68
2021/11/08 02:48:04;;;;;;;1.60;0.70;;;21.10;52.80;;;;;;6274351;28;20070;-68
2021/11/08 02:54:32;;;;;;;1.65;0.63;;;21.10;52.90;;;;;;6246576;28;20033;-68
2021/11/08 02:57:36;;;;;;;2.85;0.60;;;21.10;52.80;;;;;;6259691;28;20432;-68
2021/11/08 03:00:37;;;;;;;1.63;0.60;;;21.10;52.80;;;;;;6270722;28;20478;-68
2021/11/08 03:03:45;;;;;;;1.55;0.60;;;21.10;52.90;;;;;;6270698;28;20059;-68
2021/11/08 03:06:45;;;;;;;2.03;0.60;;;21.10;52.80;;;;;;6270491;28;20067;-68
2021/11/08 03:09:54;;;;;;;0.50;0.32;;;21.10;52.80;;;;;;6270639;28;20025;-68
2021/11/08 03:12:57;;;;;;;0.82;0.40;;;21.10;52.80;;;;;;6270322;28;20090;-68
2021/11/08 03:16:08;;;;;;;2.13;0.60;;;21.10;52.90;;;;;;6270912;28;20017;-68
2021/11/08 03:19:30;;;;;;;1.85;0.50;;;21.10;52.90;;;;;;6253179;28;20025;-68
2021/11/08 03:22:32;;;;;;;2.42;0.60;;;21.10;52.90;;;;;;6252136;28;20497;-68
2021/11/08 03:28:36;;;;;;;0.70;0.50;;;21.10;52.90;;;;;;6270653;28;20091;-68
2021/11/08 03:31:41;;;;;;;0.90;0.40;;;21.10;52.90;;;;;;6242805;28;20036;-68
2021/11/08 03:34:48;;;;;;;1.25;0.60;;;21.10;52.90;;;;;;6245294;28;20025;-68
2021/11/08 03:37:51;;;;;;;1.45;0.57;;;21.10;52.90;;;;;;6263930;28;20024;-68
2021/11/08 03:40:51;;;;;;;2.10;0.57;;;21.10;52.90;;;;;;6269980;28;20017;-69
2021/11/08 03:43:52;;;;;;;1.65;0.65;;;21.10;52.90;;;;;;6270157;28;20065;-68
2021/11/08 03:46:52;;;;;;;0.70;0.50;;;21.10;52.90;;;;;;6269680;28;20040;-68
2021/11/08 03:49:53;;;;;;;2.03;0.50;;;21.10;52.90;;;;;;6269485;28;20060;-69
2021/11/08 03:52:54;;;;;;;1.08;0.70;;;21.10;52.90;;;;;;6252126;28;20025;-68
2021/11/08 03:55:55;;;;;;;1.67;0.50;;;21.10;52.90;;;;;;6245190;28;20022;-68
2021/11/08 03:58:55;;;;;;;1.33;0.50;;;21.10;52.90;;;;;;6244978;28;20382;-68
2021/11/08 04:01:56;;;;;;;0.50;0.30;;;21.10;52.90;;;;;;6252135;28;20474;-69
2021/11/08 04:04:56;;;;;;;0.80;0.40;;;21.10;52.90;;;;;;6268831;28;20076;-68
2021/11/08 04:07:59;;;;;;;0.77;0.40;;;21.10;52.90;;;;;;6252957;28;20021;-68
2021/11/08 04:11:00;;;;;;;0.50;0.30;;;21.10;52.90;;;;;;6244706;28;20446;-68
2021/11/08 04:14:03;;;;;;;1.35;0.57;;;21.10;52.90;;;;;;6266281;28;20139;-68
2021/11/08 04:17:05;;;;;;;1.10;0.40;;;21.10;52.90;;;;;;6268392;28;20025;-68
2021/11/08 04:20:06;;;;;;;1.08;0.40;;;21.10;52.90;;;;;;6242762;28;20184;-66
2021/11/08 04:23:06;;;;;;;0.88;0.40;;;21.10;52.90;;;;;;6253140;28;20037;-66
2021/11/08 04:26:10;;;;;;;0.90;0.40;;;21.10;52.90;;;;;;6261820;28;20762;-66
2021/11/08 04:29:13;;;;;;;0.75;0.40;;;21.10;52.90;;;;;;6242795;28;20526;-66
2021/11/08 04:32:16;;;;;;;0.82;0.40;;;21.10;53.00;;;;;;6253349;28;20466;-66
2021/11/08 04:35:27;;;;;;;1.00;0.50;;;21.10;53.00;;;;;;6244190;28;20029;-66
2021/11/08 04:38:54;;;;;;;0.82;0.40;;;21.10;52.90;;;;;;6267923;28;20017;-68
2021/11/08 04:42:02;;;;;;;1.13;0.47;;;21.10;52.90;;;;;;6257505;28;20024;-68
2021/11/08 04:52:06;;;;;;;0.80;0.50;;;21.10;53.00;;;;;;6268098;28;20027;-65
2021/11/08 05:21:32;;;;;;;2.08;0.77;;;21.10;52.90;;;;;;6219591;28;20555;-67
2021/11/08 05:24:58;;;;;;;1.00;0.45;;;21.10;52.90;;;;;;6266093;28;20363;-64
2021/11/08 05:28:19;;;;;;;1.65;0.60;;;21.10;53.00;;;;;;6266931;28;20029;-69
2021/11/08 05:31:19;;;;;;;0.60;0.30;;;21.10;53.00;;;;;;6256282;28;20053;-69
2021/11/08 05:34:20;;;;;;;1.70;0.50;;;21.10;52.90;;;;;;6242998;28;20029;-69
2021/11/08 05:37:22;;;;;;;0.75;0.40;;;21.10;52.90;;;;;;6258798;28;20398;-69
2021/11/08 05:40:30;;;;;;;1.27;0.30;;;21.10;52.90;;;;;;6267952;28;20100;-68
2021/11/08 05:43:31;;;;;;;0.65;0.40;;;21.10;52.90;;;;;;6267777;28;20033;-68
2021/11/08 05:46:32;;;;;;;1.67;0.40;;;21.10;52.90;;;;;;6261005;28;20537;-68
2021/11/08 05:49:33;;;;;;;1.15;0.57;;;21.10;53.00;;;;;;6243184;28;20123;-70
2021/11/08 05:52:34;;;;;;;1.55;0.60;;;21.10;52.90;;;;;;6257144;28;20048;-69
2021/11/08 05:55:41;;;;;;;0.57;0.40;;;21.10;53.00;;;;;;6267751;28;20039;-68
2021/11/08 06:48:44;;;;;;;0.60;0.40;;;21.10;53.00;;;;;;6271511;28;20028;-69
2021/11/08 06:51:21;;;;;;;1.38;0.52;;;21.10;53.60;;;;;;6271109;28;20032;-67
2021/11/08 06:54:26;;;;;;;1.00;0.50;;;21.10;52.90;;;;;;6270150;28;20478;-68
2021/11/08 06:57:47;;;;;;;1.10;0.50;;;21.10;52.90;;;;;;6271106;28;20027;-68
2021/11/08 07:00:51;;;;;;;0.85;0.63;;;21.20;52.90;;;;;;6250833;28;20502;-69
2021/11/08 07:03:51;;;;;;;0.93;0.53;;;21.20;52.90;;;;;;6234937;28;20494;-65
2021/11/08 07:06:52;;;;;;;1.23;0.43;;;21.20;52.90;;;;;;6273219;28;20025;-65
2021/11/08 07:09:53;;;;;;;1.65;0.70;;;21.20;53.00;;;;;;6252825;28;20033;-63
2021/11/08 07:12:56;;;;;;;1.65;0.50;;;21.20;53.00;;;;;;6260792;28;20072;-66
2021/11/08 07:15:56;;;;;;;1.23;0.52;;;21.20;53.00;;;;;;6273379;28;20491;-65
2021/11/08 07:18:57;;;;;;;1.65;0.52;;;21.20;53.00;;;;;;6257238;28;20029;-65
2021/11/08 07:21:58;;;;;;;0.65;0.52;;;21.20;53.00;;;;;;6253015;28;20017;-65
2021/11/08 07:25:00;;;;;;;1.17;0.60;;;21.20;53.00;;;;;;6267993;28;20433;-65
2021/11/08 07:28:04;;;;;;;1.30;0.45;;;21.20;53.00;;;;;;6270090;28;20037;-66
2021/11/08 07:31:04;;;;;;;0.90;0.60;;;21.20;53.00;;;;;;6249261;28;20064;-65
2021/11/08 07:34:06;;;;;;;1.50;0.60;;;21.20;53.00;;;;;;6249460;28;20386;-65
2021/11/08 07:37:07;;;;;;;1.67;0.80;;;21.20;53.10;;;;;;6259677;28;20028;-67
2021/11/08 07:40:08;;;;;;;2.13;0.80;;;21.20;53.10;;;;;;6271284;28;20043;-65
2021/11/08 07:43:09;;;;;;;1.52;0.50;;;21.20;53.10;;;;;;6272084;28;20075;-65
2021/11/08 07:46:09;;;;;;;1.17;0.60;;;21.20;53.10;;;;;;6272180;28;20474;-65
2021/11/08 07:49:10;;;;;;;0.70;0.57;;;21.20;53.10;;;;;;6272580;28;20052;-66
2021/11/08 07:52:10;;;;;;;1.85;0.60;;;21.20;53.10;;;;;;6271970;28;20041;-65
2021/11/08 07:55:11;;;;;;;1.73;0.68;;;21.20;53.10;;;;;;6271908;28;20051;-66
2021/11/08 07:58:14;;;;;;;1.33;0.40;;;21.20;53.10;;;;;;6244013;28;20044;-66
2021/11/08 08:01:15;;;;;;;1.35;0.50;;;21.20;53.10;;;;;;6224789;28;20021;-65
2021/11/08 08:04:17;;;;;;;0.43;0.38;;;21.20;53.10;;;;;;6238159;28;20036;-66
2021/11/08 08:07:18;;;;;;;2.05;0.65;;;21.20;53.20;;;;;;6230690;28;20471;-65
2021/11/08 08:10:18;;;;;;;0.65;0.40;;;21.20;53.20;;;;;;6246969;28;20025;-65
2021/11/08 08:13:23;;;;;;;0.93;0.40;;;21.20;53.20;;;;;;6258964;28;20047;-65
2021/11/08 08:16:24;;;;;;;1.20;0.55;;;21.20;53.20;;;;;;6271455;28;20025;-65
2021/11/08 08:19:25;;;;;;;0.77;0.40;;;21.20;53.20;;;;;;6252523;28;20029;-67
2021/11/08 08:22:27;;;;;;;0.93;0.57;;;21.20;53.90;;;;;;6250441;28;20024;-66
2021/11/08 08:25:28;;;;;;;1.38;0.50;;;21.20;53.20;;;;;;6270936;28;20087;-67
2021/11/08 08:28:28;;;;;;;0.88;0.40;;;21.20;53.20;;;;;;6271016;28;20496;-67
2021/11/08 08:31:31;;;;;;;1.67;0.60;;;21.20;53.20;;;;;;6242496;28;20026;-66
2021/11/08 08:34:31;;;;;;;0.40;0.40;;;21.20;53.20;;;;;;6246762;28;20072;-67
2021/11/08 08:37:32;;;;;;;1.00;0.38;;;21.20;53.20;;;;;;6261219;28;20021;-67
2021/11/08 08:40:34;;;;;;;0.82;0.47;;;21.20;53.20;;;;;;6269941;28;20483;-67
2021/11/08 08:43:36;;;;;;;0.80;0.50;;;21.20;53.20;;;;;;6270606;28;20039;-67
2021/11/08 08:46:37;;;;;;;1.85;0.77;;;21.20;53.20;;;;;;6271366;28;20028;-67
2021/11/08 08:49:40;;;;;;;1.98;0.68;;;21.20;53.20;;;;;;6270591;28;20029;-67
2021/11/08 08:52:41;;;;;;;0.88;0.45;;;21.20;53.20;;;;;;6270492;28;20028;-67
2021/11/08 08:55:44;;;;;;;0.60;0.50;;;21.20;53.20;;;;;;6270623;28;20071;-67
2021/11/08 08:58:45;;;;;;;1.10;0.60;;;21.20;53.20;;;;;;6270180;28;20031;-67
2021/11/08 09:01:46;;;;;;;1.08;0.50;;;21.20;53.20;;;;;;6268903;28;20048;-67
2021/11/08 09:04:46;;;;;;;0.63;0.40;;;21.20;53.20;;;;;;6270556;28;20033;-67
2021/11/08 09:07:48;;;;;;;1.10;0.68;;;21.20;53.20;;;;;;6271167;28;20059;-66
2021/11/08 09:10:49;;;;;;;1.08;0.60;;;21.20;53.20;;;;;;6271168;28;20055;-67
2021/11/08 09:13:50;;;;;;;0.98;0.50;;;21.20;53.20;;;;;;6255381;28;20091;-68
2021/11/08 09:16:51;;;;;;;1.38;0.60;;;21.20;53.20;;;;;;6270461;28;20028;-68
2021/11/08 09:19:52;;;;;;;0.80;0.50;;;21.20;53.20;;;;;;6247497;28;20032;-68
2021/11/08 09:22:54;;;;;;;1.05;0.50;;;21.20;53.20;;;;;;6255314;28;20504;-68
2021/11/08 09:25:55;;;;;;;0.63;0.45;;;21.20;53.20;;;;;;6265542;28;20029;-68
2021/11/08 09:28:55;;;;;;;0.77;0.55;;;21.20;53.20;;;;;;6245201;28;20036;-68
2021/11/08 09:31:56;;;;;;;0.95;0.50;;;21.20;53.20;;;;;;6228913;28;20486;-68
2021/11/08 09:34:57;;;;;;;1.25;0.50;;;21.20;53.20;;;;;;6245123;28;20079;-68
2021/11/08 09:37:59;;;;;;;1.23;0.40;;;21.20;53.20;;;;;;6245088;28;20021;-68
2021/11/08 09:41:01;;;;;;;1.23;0.60;;;21.20;53.20;;;;;;6244993;28;20025;-68
2021/11/08 09:44:05;;;;;;;1.27;0.55;;;21.20;53.20;;;;;;6245200;28;20377;-68
2021/11/08 09:47:06;;;;;;;0.80;0.40;;;21.20;53.20;;;;;;6256652;28;20024;-68
2021/11/08 09:50:09;;;;;;;1.10;0.50;;;21.20;53.20;;;;;;6269571;28;20566;-68
2021/11/08 09:53:11;;;;;;;1.92;0.50;;;21.20;53.20;;;;;;6255341;28;20072;-68
2021/11/08 09:56:13;;;;;;;1.55;0.57;;;21.20;53.20;;;;;;6246985;28;20441;-68
2021/11/08 09:59:14;;;;;;;1.70;0.65;;;21.20;53.20;;;;;;6270054;28;20025;-68
2021/11/08 10:02:15;;;;;;;1.65;0.63;;;21.20;53.20;;;;;;6271445;28;20112;-69
2021/11/08 10:05:15;;;;;;;1.45;0.40;;;21.20;53.20;;;;;;6273531;28;20028;-67
2021/11/08 10:08:19;;;;;;;1.65;0.50;;;21.20;53.30;;;;;;6255263;28;20581;-68
2021/11/08 10:11:21;;;;;;;0.57;0.43;;;21.20;53.20;;;;;;6225849;28;20073;-68
2021/11/08 10:14:24;;;;;;;0.80;0.43;;;21.20;53.20;;;;;;6266948;28;20295;-68
2021/11/08 10:17:25;;;;;;;1.88;0.55;;;21.20;53.20;;;;;;6271686;28;20087;-69
2021/11/08 10:20:35;;;;;;;1.63;0.63;;;21.20;53.20;;;;;;6249403;28;20100;-68
2021/11/08 10:23:39;;;;;;;2.13;0.68;;;21.20;53.20;;;;;;6262828;28;20033;-68
2021/11/08 10:26:40;;;;;;;0.70;0.50;;;21.20;53.90;;;;;;6256867;28;20049;-68
2021/11/08 10:29:46;;;;;;;1.33;0.40;;;21.20;53.20;;;;;;6242531;28;20499;-68
2021/11/08 10:32:47;;;;;;;1.23;0.60;;;21.20;53.20;;;;;;6251765;28;20036;-69
2021/11/08 10:35:51;;;;;;;1.02;0.60;;;21.20;53.20;;;;;;6250940;28;20450;-68
2021/11/08 10:38:54;;;;;;;1.30;0.60;;;21.20;53.30;;;;;;6272751;28;20021;-68
2021/11/08 10:41:56;;;;;;;1.75;0.60;;;21.20;53.20;;;;;;6273256;28;20017;-68
2021/11/08 10:45:00;;;;;;;0.60;0.40;;;21.20;53.20;;;;;;6227274;28;20442;-68
2021/11/08 10:48:04;;;;;;;1.85;0.65;;;21.20;53.30;;;;;;6260044;28;20033;-68
2021/11/08 10:51:06;;;;;;;0.93;0.57;;;21.20;53.20;;;;;;6272607;28;20046;-68
2021/11/08 10:54:10;;;;;;;1.98;0.60;;;21.20;53.30;;;;;;6273568;28;20386;-67
2021/11/08 10:57:18;;;;;;;2.45;0.55;;;21.20;53.20;;;;;;6273551;28;20029;-68
2021/11/08 11:00:19;;;;;;;1.88;0.80;;;21.20;53.20;;;;;;6274638;28;20036;-68
2021/11/08 11:03:22;;;;;;;2.08;0.70;;;21.20;53.20;;;;;;6255037;28;20036;-68
2021/11/08 11:06:35;;;;;;;0.60;0.38;;;21.20;53.20;;;;;;6250521;28;20025;-68
2021/11/08 11:09:37;;;;;;;0.98;0.70;;;21.20;53.20;;;;;;6273019;28;20100;-68
2021/11/08 11:12:44;;;;;;;0.70;0.47;;;21.20;53.20;;;;;;6259921;28;20037;-68
2021/11/08 11:15:45;;;;;;;1.08;0.50;;;21.20;53.30;;;;;;6247682;28;20041;-68
2021/11/08 11:18:46;;;;;;;1.30;0.73;;;21.20;53.30;;;;;;6254326;28;20045;-69
2021/11/08 11:21:58;;;;;;;0.50;0.50;;;21.20;53.30;;;;;;6248054;28;20036;-68
2021/11/08 11:25:02;;;;;;;0.70;0.50;;;21.20;53.20;;;;;;6250749;28;20024;-68
2021/11/08 11:28:04;;;;;;;1.70;0.52;;;21.20;53.20;;;;;;6250286;28;20025;-68
2021/11/08 11:31:15;;;;;;;1.45;0.52;;;21.30;53.30;;;;;;6235868;28;20036;-68
2021/11/08 11:34:16;;;;;;;2.10;0.70;;;21.20;53.20;;;;;;6248497;28;20033;-67
2021/11/08 11:37:18;;;;;;;1.15;0.60;;;21.20;53.30;;;;;;6262242;28;20024;-68
2021/11/08 11:40:19;;;;;;;1.00;0.90;;;21.20;53.20;;;;;;6272276;28;20047;-68
2021/11/08 11:43:27;;;;;;;1.00;0.70;;;21.30;53.40;;;;;;6272087;28;20041;-68
2021/11/08 11:46:31;;;;;;;1.85;0.80;;;21.20;53.30;;;;;;6266512;28;20048;-68
2021/11/08 11:49:34;;;;;;;2.08;0.82;;;21.20;53.20;;;;;;6247495;28;20029;-68
2021/11/08 11:52:41;;;;;;;0.90;0.50;;;21.20;53.20;;;;;;6261555;28;20119;-68
2021/11/08 11:55:42;;;;;;;0.70;0.52;;;21.20;53.20;;;;;;6272795;28;20052;-68
2021/11/08 11:58:45;;;;;;;1.88;0.90;;;21.20;53.30;;;;;;6272329;28;20025;-68
2021/11/08 12:01:46;;;;;;;1.05;0.60;;;21.20;53.20;;;;;;6265765;28;20026;-68
2021/11/08 12:04:46;;;;;;;0.73;0.47;;;21.20;53.20;;;;;;6246755;28;20029;-68
2021/11/08 12:07:53;;;;;;;1.52;0.60;;;21.20;53.30;;;;;;6255836;28;20033;-68
2021/11/08 12:10:54;;;;;;;1.85;0.60;;;21.20;53.20;;;;;;6271982;28;20114;-68
2021/11/08 12:13:57;;;;;;;1.25;0.60;;;21.20;53.30;;;;;;6272607;28;20048;-68
2021/11/08 12:17:34;;;;;;;0.80;0.57;;;21.20;53.30;;;;;;6272816;28;20128;-68
2021/11/08 12:21:05;;;;;;;1.02;0.50;;;21.20;53.30;;;;;;6268062;28;20083;-68
2021/11/08 12:24:21;;;;;;;1.52;0.65;;;21.20;53.30;;;;;;6260894;28;20044;-68
2021/11/08 12:27:36;;;;;;;0.90;0.60;;;21.20;53.30;;;;;;6263138;28;20067;-68
2021/11/08 12:30:41;;;;;;;2.03;0.70;;;21.30;53.40;;;;;;6246421;28;20049;-68
2021/11/08 12:33:42;;;;;;;1.50;0.60;;;21.20;53.30;;;;;;6251061;28;20033;-68
2021/11/08 12:36:58;;;;;;;2.13;0.88;;;21.20;53.20;;;;;;6255803;28;20017;-68
2021/11/08 12:40:02;;;;;;;1.70;0.60;;;21.20;53.50;;;;;;6270987;28;20429;-68
2021/11/08 12:43:03;;;;;;;0.97;0.60;;;21.30;53.30;;;;;;6270876;28;20025;-68
2021/11/08 12:46:14;;;;;;;1.42;0.70;;;21.20;53.30;;;;;;6268260;28;20044;-68
2021/11/08 12:49:28;;;;;;;1.40;0.60;;;21.20;53.30;;;;;;6260676;28;20017;-68
2021/11/08 12:52:33;;;;;;;2.08;0.50;;;21.20;53.30;;;;;;6258553;28;20103;-68
2021/11/08 12:55:42;;;;;;;;;;;21.20;53.30;;;;;;6251159;28;20433;-68
2021/11/08 12:58:46;;;;;;;1.95;0.70;;;21.20;53.20;;;;;;6267158;28;19912;-68
2021/11/08 13:02:00;;;;;;;1.27;0.70;;;21.20;53.30;;;;;;6263677;28;20542;-68
2021/11/08 13:05:05;;;;;;;0.85;0.43;;;21.20;53.20;;;;;;6245524;28;20508;-68
2021/11/08 13:08:27;;;;;;;1.60;0.60;;;21.20;53.30;;;;;;6245024;28;20026;-68
2021/11/08 13:11:40;;;;;;;1.88;0.82;;;21.20;53.20;;;;;;6240179;28;20033;-68
2021/11/08 13:14:44;;;;;;;2.03;0.68;;;21.20;53.20;;;;;;6270069;28;20037;-69
2021/11/08 13:17:55;;;;;;;1.52;0.60;;;21.20;53.30;;;;;;6264368;28;20032;-68
2021/11/08 13:20:57;;;;;;;0.85;0.50;;;21.20;53.30;;;;;;6245913;28;20154;-68
2021/11/08 13:23:58;;;;;;;2.30;0.75;;;21.20;53.30;;;;;;6266600;28;20021;-69
2021/11/08 13:26:58;;;;;;;1.80;0.55;;;21.20;53.30;;;;;;6269839;28;20039;-68
2021/11/08 13:30:01;;;;;;;1.20;0.65;;;21.20;53.30;;;;;;6253967;28;20033;-68
2021/11/08 13:33:03;;;;;;;1.65;0.82;;;21.20;53.20;;;;;;6248711;28;20053;-68
2021/11/08 13:36:05;;;;;;;1.23;0.70;;;21.30;53.30;;;;;;6244100;28;20029;-65
2021/11/08 13:39:05;;;;;;;0.95;0.60;;;21.20;53.30;;;;;;6245338;28;20482;-65
2021/11/08 13:42:06;;;;;;;1.35;0.60;;;21.20;53.20;;;;;;6244794;28;20037;-66
2021/11/08 13:45:07;;;;;;;1.10;0.68;;;21.30;53.40;;;;;;6245026;28;20029;-66
2021/11/08 13:48:21;;;;;;;1.50;0.60;;;21.30;53.40;;;;;;6264418;28;20099;-68
2021/11/08 13:51:25;;;;;;;1.52;0.52;;;21.30;53.30;;;;;;6269635;28;20398;-68
2021/11/08 13:54:33;;;;;;;2.05;0.77;;;21.30;53.30;;;;;;6254107;28;20406;-68
2021/11/08 13:57:39;;;;;;;1.08;0.60;;;21.30;54.00;;;;;;6248542;28;20029;-68
2021/11/08 14:00:40;;;;;;;1.02;0.60;;;21.30;53.30;;;;;;6269875;28;20108;-68
2021/11/08 14:03:46;;;;;;;0.85;0.50;;;21.30;53.30;;;;;;6247075;28;20140;-68
2021/11/08 14:06:48;;;;;;;0.82;0.60;;;21.30;53.30;;;;;;6243321;28;20083;-68
2021/11/08 14:09:49;;;;;;;1.67;0.70;;;21.20;53.20;;;;;;6245089;28;20037;-68
2021/11/08 14:12:49;;;;;;;1.05;0.50;;;21.30;53.40;;;;;;6254668;28;20056;-69
2021/11/08 14:15:57;;;;;;;1.35;0.70;;;21.30;53.30;;;;;;6269763;28;20498;-69
2021/11/08 14:18:58;;;;;;;1.33;0.60;;;21.30;53.30;;;;;;6249737;28;20052;-68
2021/11/08 14:21:59;;;;;;;0.63;0.55;;;21.30;53.30;;;;;;6246528;28;20026;-68
2021/11/08 14:25:02;;;;;;;1.10;0.75;;;21.30;53.30;;;;;;6265690;28;20388;-68
2021/11/08 14:28:03;;;;;;;0.73;0.50;;;21.30;53.40;;;;;;6266680;28;20100;-69
2021/11/08 14:31:14;;;;;;;3.05;0.70;;;21.30;53.40;;;;;;6252755;28;20058;-68
2021/11/08 14:34:16;;;;;;;1.40;0.70;;;21.30;53.40;;;;;;6245053;28;20026;-68
2021/11/08 14:37:24;;;;;;;1.15;0.70;;;21.30;53.40;;;;;;6259461;28;20074;-68
2021/11/08 14:40:34;;;;;;;1.20;0.85;;;21.30;53.40;;;;;;6268981;28;20493;-68
2021/11/08 14:43:35;;;;;;;1.15;0.68;;;21.30;53.40;;;;;;6243331;28;20025;-68
2021/11/08 14:46:44;;;;;;;1.15;0.70;;;21.30;53.40;;;;;;6250257;28;20080;-68
2021/11/08 14:50:00;;;;;;;1.13;0.70;;;21.30;53.40;;;;;;6267157;28;20072;-68
2021/11/08 14:53:02;;;;;;;2.30;0.70;;;21.30;53.40;;;;;;6266607;28;20537;-68
2021/11/08 14:56:25;;;;;;;1.55;0.70;;;21.30;53.40;;;;;;6273314;28;20025;-68
2021/11/08 14:59:34;;;;;;;1.20;0.75;;;21.30;53.40;;;;;;6273272;28;20351;-68
2021/11/08 15:02:35;;;;;;;1.30;0.70;;;21.30;53.40;;;;;;6272914;28;20037;-68
2021/11/08 15:05:38;;;;;;;1.58;0.65;;;21.30;53.40;;;;;;6273573;28;20056;-68
2021/11/08 15:08:39;;;;;;;1.27;0.57;;;21.30;53.40;;;;;;6273136;28;20029;-68
2021/11/08 15:11:42;;;;;;;2.55;0.82;;;21.30;53.40;;;;;;6272774;28;20414;-68
2021/11/08 15:14:49;;;;;;;2.58;1.00;;;21.30;53.40;;;;;;6271807;28;20425;-68
2021/11/08 15:17:52;;;;;;;1.02;0.55;;;21.30;53.40;;;;;;6266860;28;20017;-69
2021/11/08 15:21:01;;;;;;;1.08;0.60;;;21.30;53.40;;;;;;6248226;28;20025;-69
2021/11/08 15:24:09;;;;;;;1.00;0.60;;;21.30;53.40;;;;;;6248818;28;20322;-68
2021/11/08 15:27:10;;;;;;;0.90;0.55;;;21.30;53.40;;;;;;6263210;28;20041;-68
2021/11/08 15:30:13;;;;;;;0.80;0.80;;;21.30;53.40;;;;;;6253535;28;20091;-68
2021/11/08 15:33:18;;;;;;;1.00;0.60;;;21.30;53.40;;;;;;6245777;28;20514;-68
2021/11/08 15:36:23;;;;;;;1.20;0.80;;;21.30;53.40;;;;;;6253437;28;20028;-68
2021/11/08 15:39:30;;;;;;;1.02;0.50;;;21.30;53.40;;;;;;6272143;28;20083;-68
2021/11/08 15:42:30;;;;;;;0.73;0.50;;;21.30;53.40;;;;;;6271421;28;20025;-69
2021/11/08 15:45:36;;;;;;;1.83;0.60;;;21.30;53.40;;;;;;6272368;28;20478;-68
2021/11/08 15:48:39;;;;;;;1.48;0.80;;;21.30;53.40;;;;;;6248494;28;20521;-68
2021/11/08 15:51:41;;;;;;;2.42;0.70;;;21.30;53.40;;;;;;6254285;28;20013;-68
2021/11/08 15:54:42;;;;;;;1.30;0.68;;;21.30;53.40;;;;;;6272192;28;20033;-67
2021/11/08 15:57:42;;;;;;;1.48;0.70;;;21.30;53.40;;;;;;6271734;28;20064;-67
2021/11/08 16:00:50;;;;;;;1.42;0.57;;;21.30;53.40;;;;;;6271171;28;20025;-67
2021/11/08 16:03:51;;;;;;;0.80;0.63;;;21.30;53.40;;;;;;6270441;28;20475;-66
2021/11/08 16:06:53;;;;;;;0.75;0.65;;;21.30;53.40;;;;;;6270704;28;20154;-66
2021/11/08 16:09:53;;;;;;;1.35;0.60;;;21.30;53.40;;;;;;6271406;28;20044;-67
2021/11/08 16:12:54;;;;;;;1.02;0.65;;;21.30;53.40;;;;;;6271333;28;20056;-67
2021/11/08 16:15:55;;;;;;;1.30;0.70;;;21.30;53.40;;;;;;6271619;28;20469;-67
2021/11/08 16:18:56;;;;;;;2.38;0.70;;;21.30;53.40;;;;;;6255782;28;20387;-67
2021/11/08 16:21:57;;;;;;;0.88;0.50;;;21.30;53.40;;;;;;6249478;28;20026;-67
2021/11/08 16:24:59;;;;;;;0.68;0.63;;;21.30;53.40;;;;;;6270136;28;20029;-67
2021/11/08 16:27:59;;;;;;;0.68;0.40;;;21.30;53.40;;;;;;6269893;28;20036;-67
2021/11/08 16:31:06;;;;;;;1.30;0.60;;;21.30;53.40;;;;;;6247718;28;20237;-66
2021/11/08 16:34:06;;;;;;;1.50;0.82;;;21.30;53.40;;;;;;6248269;28;20039;-67
2021/11/08 16:37:07;;;;;;;1.65;0.70;;;21.30;53.40;;;;;;6259170;28;20021;-67
2021/11/08 16:40:10;;;;;;;1.00;0.70;;;21.30;53.40;;;;;;6269713;28;20023;-66
2021/11/08 16:43:17;;;;;;;1.10;0.73;;;21.30;53.40;;;;;;6248154;28;20025;-67
2021/11/08 16:46:20;;;;;;;1.05;0.63;;;21.30;53.40;;;;;;6251218;28;20033;-66
2021/11/08 16:49:21;;;;;;;1.40;0.70;;;21.30;53.40;;;;;;6269222;28;20028;-66
2021/11/08 16:52:22;;;;;;;2.38;0.40;;;21.30;53.40;;;;;;6248729;28;20458;-67
2021/11/08 16:55:23;;;;;;;1.02;0.65;;;21.30;53.40;;;;;;6221538;28;20037;-67
2021/11/08 16:58:24;;;;;;;1.20;0.60;;;21.30;53.40;;;;;;6261960;28;20111;-66
2021/11/08 17:01:24;;;;;;;1.10;0.52;;;21.30;53.40;;;;;;6267183;28;20079;-66
2021/11/08 17:04:28;;;;;;;1.58;0.60;;;21.30;53.40;;;;;;6245295;28;20383;-67
2021/11/08 17:07:30;;;;;;;0.70;0.60;;;21.30;53.40;;;;;;6236107;28;20038;-67
2021/11/08 17:10:50;;;;;;;2.08;0.73;;;21.30;53.40;;;;;;6221218;28;20076;-66
2021/11/08 17:13:57;;;;;;;1.10;0.68;;;21.30;53.40;;;;;;6262993;28;20056;-66
2021/11/08 17:16:57;;;;;;;1.33;0.68;;;21.30;53.40;;;;;;6268882;28;20025;-66
2021/11/08 17:19:58;;;;;;;1.35;0.70;;;21.30;53.40;;;;;;6234852;28;20622;-67
2021/11/08 17:22:59;;;;;;;0.70;0.60;;;21.30;53.40;;;;;;6244492;28;20036;-67
2021/11/08 17:26:00;;;;;;;1.30;0.73;;;21.30;53.40;;;;;;6261606;28;20032;-66
2021/11/08 17:29:00;;;;;;;1.30;0.70;;;21.30;53.40;;;;;;6267265;28;20039;-66
2021/11/08 17:32:01;;;;;;;1.55;0.65;;;21.30;54.10;;;;;;6231079;28;20083;-67
2021/11/08 17:35:03;;;;;;;1.70;0.68;;;21.30;53.40;;;;;;6242986;28;20544;-66